sensor_id;sensor_type;location;lat;lon;timestamp;pressure;altitude;pressure_sealevel;temperature;humidity
72444;BME280;60449;52.016;5.414;2022-08-01T00:05:27;101586.06;;;19.84;80.80
72444;BME280;60449;52.016;5.414;2022-08-01T00:06:18;101577.00;;;19.92;79.79
72444;BME280;60449;52.016;5.414;2022-08-01T00:07:08;101588.97;;;19.73;80.69
72444;BME280;60449;52.016;5.414;2022-08-01T00:08:09;101586.00;;;19.87;80.18
72444;BME280;60449;52.016;5.414;2022-08-01T00:08:59;101586.81;;;19.93;79.37
72444;BME280;60449;52.016;5.414;2022-08-01T00:09:51;101588.50;;;19.98;79.59
72444;BME280;60449;52.016;5.414;2022-08-01T00:11:14;101590.31;;;19.97;79.23
72444;BME280;60449;52.016;5.414;2022-08-01T00:12:16;101579.13;;;19.73;80.22
72444;BME280;60449;52.016;5.414;2022-08-01T00:13:06;101583.63;;;19.73;79.75
72444;BME280;60449;52.016;5.414;2022-08-01T00:14:25;101592.44;;;19.78;80.42
72444;BME280;60449;52.016;5.414;2022-08-01T00:15:26;101576.13;;;19.90;80.38
72444;BME280;60449;52.016;5.414;2022-08-01T00:16:25;101587.53;;;20.02;79.73
72444;BME280;60449;52.016;5.414;2022-08-01T00:17:16;101579.13;;;19.73;79.68
72444;BME280;60449;52.016;5.414;2022-08-01T00:18:06;101584.00;;;20.00;79.56
72444;BME280;60449;52.016;5.414;2022-08-01T00:19:02;101581.56;;;19.87;79.69
72444;BME280;60449;52.016;5.414;2022-08-01T00:19:52;101582.13;;;20.05;79.53
72444;BME280;60449;52.016;5.414;2022-08-01T00:26:57;101591.66;;;20.18;78.46
72444;BME280;60449;52.016;5.414;2022-08-01T00:27:54;101590.34;;;20.36;78.07
72444;BME280;60449;52.016;5.414;2022-08-01T00:28:45;101591.25;;;20.37;77.49
72444;BME280;60449;52.016;5.414;2022-08-01T00:29:36;101593.69;;;20.46;77.40
72444;BME280;60449;52.016;5.414;2022-08-01T00:30:26;101593.50;;;20.56;76.86
72444;BME280;60449;52.016;5.414;2022-08-01T00:31:20;101584.59;;;20.55;77.03
72444;BME280;60449;52.016;5.414;2022-08-01T00:32:11;101588.16;;;20.54;77.26
72444;BME280;60449;52.016;5.414;2022-08-01T00:33:02;101594.63;;;20.45;77.18
72444;BME280;60449;52.016;5.414;2022-08-01T00:35:07;101590.16;;;20.46;77.74
72444;BME280;60449;52.016;5.414;2022-08-01T00:35:57;101596.25;;;20.52;77.88
72444;BME280;60449;52.016;5.414;2022-08-01T00:36:49;101587.91;;;20.26;78.22
72444;BME280;60449;52.016;5.414;2022-08-01T00:38:00;101583.91;;;20.45;77.87
72444;BME280;60449;52.016;5.414;2022-08-01T00:38:57;101584.13;;;20.36;77.91
72444;BME280;60449;52.016;5.414;2022-08-01T00:39:47;101588.22;;;20.52;77.48
72444;BME280;60449;52.016;5.414;2022-08-01T01:07:32;101592.59;;;20.16;78.56
72444;BME280;60449;52.016;5.414;2022-08-01T01:08:39;101590.84;;;19.67;79.70
72444;BME280;60449;52.016;5.414;2022-08-01T02:21:25;101587.41;;;20.06;78.99
72444;BME280;60449;52.016;5.414;2022-08-01T02:23:51;101585.94;;;19.90;79.40
72444;BME280;60449;52.016;5.414;2022-08-01T02:26:32;101590.22;;;20.02;78.70
72444;BME280;60449;52.016;5.414;2022-08-01T02:27:41;101587.84;;;19.83;79.96
72444;BME280;60449;52.016;5.414;2022-08-01T02:28:59;101591.25;;;19.94;79.29
72444;BME280;60449;52.016;5.414;2022-08-01T02:30:15;101584.56;;;19.68;80.39
72444;BME280;60449;52.016;5.414;2022-08-01T02:31:30;101587.00;;;19.82;80.13
72444;BME280;60449;52.016;5.414;2022-08-01T02:32:31;101589.72;;;19.32;82.14
72444;BME280;60449;52.016;5.414;2022-08-01T02:33:35;101599.34;;;19.43;81.81
72444;BME280;60449;52.016;5.414;2022-08-01T02:34:29;101600.25;;;19.40;81.99
72444;BME280;60449;52.016;5.414;2022-08-01T02:35:26;101596.66;;;19.43;81.76
72444;BME280;60449;52.016;5.414;2022-08-01T02:36:21;101595.56;;;19.53;81.27
72444;BME280;60449;52.016;5.414;2022-08-01T02:37:18;101597.59;;;19.40;81.28
72444;BME280;60449;52.016;5.414;2022-08-01T02:38:13;101586.75;;;19.48;81.63
72444;BME280;60449;52.016;5.414;2022-08-01T02:39:13;101593.50;;;19.69;80.92
72444;BME280;60449;52.016;5.414;2022-08-01T02:40:33;101585.47;;;19.67;80.59
72444;BME280;60449;52.016;5.414;2022-08-01T02:41:30;101592.94;;;19.51;80.89
72444;BME280;60449;52.016;5.414;2022-08-01T02:42:26;101594.41;;;19.68;81.09
72444;BME280;60449;52.016;5.414;2022-08-01T02:43:21;101592.44;;;19.78;80.58
72444;BME280;60449;52.016;5.414;2022-08-01T02:44:30;101595.72;;;19.91;80.13
72444;BME280;60449;52.016;5.414;2022-08-01T02:45:42;101591.69;;;19.70;80.61
72444;BME280;60449;52.016;5.414;2022-08-01T02:46:44;101605.66;;;19.86;80.14
72444;BME280;60449;52.016;5.414;2022-08-01T02:47:44;101598.13;;;19.59;80.63
72444;BME280;60449;52.016;5.414;2022-08-01T02:48:49;101601.97;;;19.44;81.68
72444;BME280;60449;52.016;5.414;2022-08-01T02:49:45;101606.03;;;19.65;81.17
72444;BME280;60449;52.016;5.414;2022-08-01T02:50:39;101601.56;;;19.16;82.29
72444;BME280;60449;52.016;5.414;2022-08-01T02:51:37;101601.06;;;19.45;82.12
72444;BME280;60449;52.016;5.414;2022-08-01T02:52:37;101598.00;;;19.65;81.48
72444;BME280;60449;52.016;5.414;2022-08-01T02:53:32;101597.72;;;19.81;80.83
72444;BME280;60449;52.016;5.414;2022-08-01T02:54:36;101597.66;;;19.84;80.42
72444;BME280;60449;52.016;5.414;2022-08-01T05:37:25;101654.94;;;19.74;80.74
72444;BME280;60449;52.016;5.414;2022-08-01T05:38:19;101661.16;;;19.76;80.87
72444;BME280;60449;52.016;5.414;2022-08-01T05:39:11;101658.81;;;19.57;81.05
72444;BME280;60449;52.016;5.414;2022-08-01T05:40:04;101663.06;;;19.67;81.04
72444;BME280;60449;52.016;5.414;2022-08-01T05:42:02;101666.00;;;19.52;81.29
72444;BME280;60449;52.016;5.414;2022-08-01T05:42:56;101666.84;;;19.57;81.47
72444;BME280;60449;52.016;5.414;2022-08-01T05:43:45;101662.81;;;19.31;82.05
72444;BME280;60449;52.016;5.414;2022-08-01T05:44:37;101659.38;;;19.23;82.35
72444;BME280;60449;52.016;5.414;2022-08-01T05:45:26;101670.66;;;19.40;81.63
72444;BME280;60449;52.016;5.414;2022-08-01T05:46:17;101666.09;;;19.47;81.33
72444;BME280;60449;52.016;5.414;2022-08-01T05:47:14;101667.47;;;19.72;80.66
72444;BME280;60449;52.016;5.414;2022-08-01T05:48:05;101665.53;;;19.28;81.87
72444;BME280;60449;52.016;5.414;2022-08-01T05:48:55;101661.97;;;19.28;82.18
72444;BME280;60449;52.016;5.414;2022-08-01T05:49:46;101669.03;;;19.32;81.13
72444;BME280;60449;52.016;5.414;2022-08-01T05:50:36;101665.50;;;19.30;81.48
72444;BME280;60449;52.016;5.414;2022-08-01T05:51:28;101666.28;;;19.36;81.66
72444;BME280;60449;52.016;5.414;2022-08-01T05:52:19;101661.91;;;19.32;82.46
72444;BME280;60449;52.016;5.414;2022-08-01T05:53:11;101662.63;;;19.40;82.17
72444;BME280;60449;52.016;5.414;2022-08-01T05:54:01;101665.88;;;19.61;80.92
72444;BME280;60449;52.016;5.414;2022-08-01T05:54:53;101665.81;;;19.64;80.95
72444;BME280;60449;52.016;5.414;2022-08-01T05:55:43;101674.84;;;19.57;81.28
72444;BME280;60449;52.016;5.414;2022-08-01T05:56:34;101666.69;;;19.65;81.83
72444;BME280;60449;52.016;5.414;2022-08-01T05:57:24;101672.19;;;19.56;81.53
72444;BME280;60449;52.016;5.414;2022-08-01T05:58:22;101670.09;;;19.73;81.85
72444;BME280;60449;52.016;5.414;2022-08-01T05:59:12;101671.00;;;19.74;81.46
72444;BME280;60449;52.016;5.414;2022-08-01T06:00:09;101670.56;;;19.99;81.10
72444;BME280;60449;52.016;5.414;2022-08-01T06:01:10;101676.16;;;19.83;81.31
72444;BME280;60449;52.016;5.414;2022-08-01T06:02:01;101672.47;;;19.38;82.00
72444;BME280;60449;52.016;5.414;2022-08-01T06:02:54;101674.28;;;19.38;81.12
72444;BME280;60449;52.016;5.414;2022-08-01T06:03:45;101671.47;;;19.46;81.74
72444;BME280;60449;52.016;5.414;2022-08-01T06:04:46;101678.69;;;19.40;81.96
72444;BME280;60449;52.016;5.414;2022-08-01T06:05:37;101675.78;;;18.95;83.12
72444;BME280;60449;52.016;5.414;2022-08-01T06:06:27;101672.06;;;19.08;82.85
72444;BME280;60449;52.016;5.414;2022-08-01T06:07:18;101674.28;;;19.38;82.12
72444;BME280;60449;52.016;5.414;2022-08-01T06:08:15;101679.50;;;19.44;81.04
72444;BME280;60449;52.016;5.414;2022-08-01T06:09:07;101688.13;;;19.63;80.81
72444;BME280;60449;52.016;5.414;2022-08-01T06:10:00;101682.50;;;19.79;80.29
72444;BME280;60449;52.016;5.414;2022-08-01T06:10:51;101683.31;;;19.82;79.19
72444;BME280;60449;52.016;5.414;2022-08-01T06:11:41;101684.91;;;19.94;78.26
72444;BME280;60449;52.016;5.414;2022-08-01T06:12:43;101686.94;;;19.80;79.03
72444;BME280;60449;52.016;5.414;2022-08-01T06:13:32;101688.38;;;19.49;80.92
72444;BME280;60449;52.016;5.414;2022-08-01T06:14:23;101678.38;;;19.04;82.31
72444;BME280;60449;52.016;5.414;2022-08-01T06:15:21;101689.50;;;19.34;81.42
72444;BME280;60449;52.016;5.414;2022-08-01T06:16:12;101688.50;;;19.40;82.15
72444;BME280;60449;52.016;5.414;2022-08-01T06:17:02;101683.34;;;18.65;83.72
72444;BME280;60449;52.016;5.414;2022-08-01T06:17:52;101677.94;;;18.69;84.24
72444;BME280;60449;52.016;5.414;2022-08-01T06:18:42;101693.56;;;19.02;83.92
72444;BME280;60449;52.016;5.414;2022-08-01T06:19:33;101689.91;;;19.08;83.55
72444;BME280;60449;52.016;5.414;2022-08-01T06:20:23;101692.28;;;19.27;82.45
72444;BME280;60449;52.016;5.414;2022-08-01T06:21:29;101676.47;;;19.13;81.88
72444;BME280;60449;52.016;5.414;2022-08-01T06:22:45;101689.22;;;19.50;81.30
72444;BME280;60449;52.016;5.414;2022-08-01T06:23:39;101687.59;;;19.43;80.74
72444;BME280;60449;52.016;5.414;2022-08-01T06:25:37;101682.00;;;19.55;80.10
72444;BME280;60449;52.016;5.414;2022-08-01T06:26:28;101686.09;;;19.23;81.16
72444;BME280;60449;52.016;5.414;2022-08-01T06:27:19;101688.31;;;19.52;81.40
72444;BME280;60449;52.016;5.414;2022-08-01T06:28:12;101691.06;;;19.48;81.79
72444;BME280;60449;52.016;5.414;2022-08-01T06:29:23;101692.88;;;19.46;81.71
72444;BME280;60449;52.016;5.414;2022-08-01T06:30:25;101685.28;;;19.73;81.34
72444;BME280;60449;52.016;5.414;2022-08-01T06:31:23;101686.09;;;19.76;80.78
72444;BME280;60449;52.016;5.414;2022-08-01T06:32:12;101693.78;;;19.96;80.64
72444;BME280;60449;52.016;5.414;2022-08-01T06:33:03;101691.22;;;19.90;79.61
72444;BME280;60449;52.016;5.414;2022-08-01T06:33:53;101689.47;;;19.86;79.98
72444;BME280;60449;52.016;5.414;2022-08-01T06:34:46;101692.97;;;19.93;79.22
72444;BME280;60449;52.016;5.414;2022-08-01T06:35:35;101690.81;;;20.14;78.51
72444;BME280;60449;52.016;5.414;2022-08-01T06:36:26;101693.34;;;20.20;76.83
72444;BME280;60449;52.016;5.414;2022-08-01T06:37:15;101691.34;;;20.30;76.88
72444;BME280;60449;52.016;5.414;2022-08-01T06:38:06;101697.97;;;20.12;77.84
72444;BME280;60449;52.016;5.414;2022-08-01T06:38:57;101693.25;;;20.26;76.34
72444;BME280;60449;52.016;5.414;2022-08-01T06:39:47;101700.44;;;20.22;76.62
72444;BME280;60449;52.016;5.414;2022-08-01T06:40:38;101696.72;;;20.30;76.71
72444;BME280;60449;52.016;5.414;2022-08-01T06:41:29;101699.44;;;20.28;77.02
72444;BME280;60449;52.016;5.414;2022-08-01T06:42:18;101701.06;;;20.37;77.30
72444;BME280;60449;52.016;5.414;2022-08-01T06:43:08;101701.81;;;20.42;76.82
72444;BME280;60449;52.016;5.414;2022-08-01T06:44:00;101699.13;;;20.44;75.59
72444;BME280;60449;52.016;5.414;2022-08-01T06:44:52;101698.53;;;20.28;76.01
72444;BME280;60449;52.016;5.414;2022-08-01T06:45:42;101701.13;;;20.34;76.58
72444;BME280;60449;52.016;5.414;2022-08-01T06:46:32;101702.88;;;20.35;76.15
72444;BME280;60449;52.016;5.414;2022-08-01T06:47:23;101696.34;;;20.48;76.49
72444;BME280;60449;52.016;5.414;2022-08-01T06:48:14;101698.06;;;20.52;76.17
72444;BME280;60449;52.016;5.414;2022-08-01T06:49:04;101702.72;;;20.43;75.25
72444;BME280;60449;52.016;5.414;2022-08-01T06:49:55;101705.34;;;20.44;75.68
72444;BME280;60449;52.016;5.414;2022-08-01T06:50:44;101699.75;;;20.57;75.57
72444;BME280;60449;52.016;5.414;2022-08-01T06:51:35;101697.72;;;20.68;75.63
72444;BME280;60449;52.016;5.414;2022-08-01T06:52:24;101704.44;;;20.45;75.81
72444;BME280;60449;52.016;5.414;2022-08-01T06:53:15;101713.38;;;20.44;76.50
72444;BME280;60449;52.016;5.414;2022-08-01T06:54:06;101711.41;;;20.54;75.90
72444;BME280;60449;52.016;5.414;2022-08-01T06:54:56;101702.47;;;20.55;75.61
72444;BME280;60449;52.016;5.414;2022-08-01T06:55:46;101710.59;;;20.50;75.91
72444;BME280;60449;52.016;5.414;2022-08-01T06:56:37;101722.81;;;20.64;75.48
72444;BME280;60449;52.016;5.414;2022-08-01T06:57:27;101720.72;;;20.78;74.72
72444;BME280;60449;52.016;5.414;2022-08-01T06:58:17;101710.97;;;20.74;74.81
72444;BME280;60449;52.016;5.414;2022-08-01T06:59:07;101709.75;;;20.91;74.47
72444;BME280;60449;52.016;5.414;2022-08-01T07:00:02;101707.94;;;20.93;73.87
72444;BME280;60449;52.016;5.414;2022-08-01T07:00:55;101713.50;;;20.84;74.05
72444;BME280;60449;52.016;5.414;2022-08-01T07:01:45;101715.19;;;20.88;74.37
72444;BME280;60449;52.016;5.414;2022-08-01T07:02:35;101708.13;;;20.84;74.61
72444;BME280;60449;52.016;5.414;2022-08-01T07:03:26;101707.53;;;20.69;75.17
72444;BME280;60449;52.016;5.414;2022-08-01T07:04:16;101708.22;;;20.77;74.54
72444;BME280;60449;52.016;5.414;2022-08-01T07:05:08;101716.59;;;20.62;74.13
72444;BME280;60449;52.016;5.414;2022-08-01T07:06:01;101708.28;;;20.74;74.00
72444;BME280;60449;52.016;5.414;2022-08-01T07:06:52;101711.66;;;20.86;74.24
72444;BME280;60449;52.016;5.414;2022-08-01T07:07:42;101712.06;;;20.65;74.44
72444;BME280;60449;52.016;5.414;2022-08-01T07:08:33;101715.28;;;20.41;76.91
72444;BME280;60449;52.016;5.414;2022-08-01T07:09:25;101713.44;;;20.43;77.67
72444;BME280;60449;52.016;5.414;2022-08-01T07:10:18;101719.94;;;20.29;77.29
72444;BME280;60449;52.016;5.414;2022-08-01T07:11:11;101727.38;;;20.13;78.44
72444;BME280;60449;52.016;5.414;2022-08-01T07:12:02;101710.91;;;20.35;77.46
72444;BME280;60449;52.016;5.414;2022-08-01T07:12:52;101714.53;;;20.31;76.60
72444;BME280;60449;52.016;5.414;2022-08-01T07:13:43;101711.16;;;20.22;76.47
72444;BME280;60449;52.016;5.414;2022-08-01T07:14:34;101714.50;;;20.34;76.34
72444;BME280;60449;52.016;5.414;2022-08-01T07:15:25;101713.06;;;20.17;77.74
72444;BME280;60449;52.016;5.414;2022-08-01T07:16:16;101720.28;;;19.59;78.88
72444;BME280;60449;52.016;5.414;2022-08-01T07:17:07;101714.78;;;19.68;79.66
72444;BME280;60449;52.016;5.414;2022-08-01T07:17:56;101716.19;;;19.92;78.87
72444;BME280;60449;52.016;5.414;2022-08-01T07:18:50;101713.34;;;20.02;78.00
72444;BME280;60449;52.016;5.414;2022-08-01T07:19:40;101713.06;;;20.17;77.06
72444;BME280;60449;52.016;5.414;2022-08-01T07:20:30;101710.25;;;20.23;76.67
72444;BME280;60449;52.016;5.414;2022-08-01T07:21:20;101718.97;;;20.33;76.97
72444;BME280;60449;52.016;5.414;2022-08-01T07:22:10;101716.31;;;20.32;76.72
72444;BME280;60449;52.016;5.414;2022-08-01T07:23:00;101718.28;;;20.23;77.34
72444;BME280;60449;52.016;5.414;2022-08-01T07:23:51;101721.56;;;19.89;79.55
72444;BME280;60449;52.016;5.414;2022-08-01T07:24:42;101719.41;;;20.12;79.71
72444;BME280;60449;52.016;5.414;2022-08-01T07:25:33;101713.84;;;20.22;77.63
72444;BME280;60449;52.016;5.414;2022-08-01T07:26:22;101714.50;;;20.34;77.35
72444;BME280;60449;52.016;5.414;2022-08-01T07:27:13;101721.41;;;20.44;76.61
72444;BME280;60449;52.016;5.414;2022-08-01T07:28:03;101716.72;;;20.56;76.62
72444;BME280;60449;52.016;5.414;2022-08-01T07:28:56;101717.91;;;20.42;76.81
72444;BME280;60449;52.016;5.414;2022-08-01T07:29:46;101727.31;;;20.16;78.59
72444;BME280;60449;52.016;5.414;2022-08-01T07:30:36;101724.44;;;19.77;80.86
72444;BME280;60449;52.016;5.414;2022-08-01T07:31:26;101724.72;;;19.60;82.32
72444;BME280;60449;52.016;5.414;2022-08-01T07:32:17;101719.28;;;19.66;82.16
72444;BME280;60449;52.016;5.414;2022-08-01T07:33:06;101731.44;;;19.84;81.35
72444;BME280;60449;52.016;5.414;2022-08-01T07:33:57;101724.59;;;19.67;81.43
72444;BME280;60449;52.016;5.414;2022-08-01T07:34:46;101724.50;;;19.74;81.79
72444;BME280;60449;52.016;5.414;2022-08-01T07:35:37;101729.94;;;19.67;82.36
72444;BME280;60449;52.016;5.414;2022-08-01T07:36:28;101734.09;;;19.87;81.62
72444;BME280;60449;52.016;5.414;2022-08-01T07:37:19;101733.22;;;19.85;81.25
72444;BME280;60449;52.016;5.414;2022-08-01T07:38:09;101737.19;;;20.14;80.31
72444;BME280;60449;52.016;5.414;2022-08-01T07:38:59;101731.03;;;20.09;79.87
72444;BME280;60449;52.016;5.414;2022-08-01T07:39:50;101728.97;;;20.23;79.61
72444;BME280;60449;52.016;5.414;2022-08-01T07:40:41;101733.91;;;20.45;79.16
72444;BME280;60449;52.016;5.414;2022-08-01T07:41:31;101729.34;;;20.03;80.20
72444;BME280;60449;52.016;5.414;2022-08-01T07:42:21;101729.75;;;20.30;79.40
72444;BME280;60449;52.016;5.414;2022-08-01T07:43:12;101732.44;;;20.29;79.63
72444;BME280;60449;52.016;5.414;2022-08-01T07:44:03;101730.50;;;20.37;79.85
72444;BME280;60449;52.016;5.414;2022-08-01T07:44:53;101737.94;;;20.22;80.80
72444;BME280;60449;52.016;5.414;2022-08-01T07:45:43;101738.16;;;20.10;81.94
72444;BME280;60449;52.016;5.414;2022-08-01T07:46:33;101743.50;;;20.10;82.29
72444;BME280;60449;52.016;5.414;2022-08-01T07:47:24;101730.50;;;20.37;81.54
72444;BME280;60449;52.016;5.414;2022-08-01T07:48:14;101724.69;;;20.59;80.19
72444;BME280;60449;52.016;5.414;2022-08-01T07:49:05;101735.16;;;20.73;79.30
72444;BME280;60449;52.016;5.414;2022-08-01T07:49:59;101734.75;;;20.93;78.04
72444;BME280;60449;52.016;5.414;2022-08-01T07:50:50;101733.16;;;20.83;77.34
72444;BME280;60449;52.016;5.414;2022-08-01T07:51:39;101731.34;;;20.83;77.65
72444;BME280;60449;52.016;5.414;2022-08-01T07:52:30;101749.28;;;20.79;77.81
72444;BME280;60449;52.016;5.414;2022-08-01T07:53:20;101744.56;;;20.48;78.75
72444;BME280;60449;52.016;5.414;2022-08-01T07:54:11;101746.75;;;20.28;78.62
72444;BME280;60449;52.016;5.414;2022-08-01T07:55:02;101743.22;;;20.26;78.07
72444;BME280;60449;52.016;5.414;2022-08-01T07:55:53;101747.94;;;20.11;78.60
72444;BME280;60449;52.016;5.414;2022-08-01T07:56:43;101749.06;;;19.99;78.89
72444;BME280;60449;52.016;5.414;2022-08-01T07:57:34;101751.13;;;19.81;79.90
72444;BME280;60449;52.016;5.414;2022-08-01T07:58:24;101752.72;;;19.95;80.15
72444;BME280;60449;52.016;5.414;2022-08-01T07:59:14;101755.22;;;20.04;77.93
72444;BME280;60449;52.016;5.414;2022-08-01T08:00:06;101750.75;;;20.05;77.92
72444;BME280;60449;52.016;5.414;2022-08-01T08:00:57;101749.69;;;20.14;78.27
72444;BME280;60449;52.016;5.414;2022-08-01T08:01:49;101752.28;;;20.18;78.03
72444;BME280;60449;52.016;5.414;2022-08-01T08:02:40;101758.28;;;20.31;77.39
72444;BME280;60449;52.016;5.414;2022-08-01T08:03:31;101752.94;;;20.31;77.09
72444;BME280;60449;52.016;5.414;2022-08-01T08:04:29;101754.47;;;20.43;77.32
72444;BME280;60449;52.016;5.414;2022-08-01T08:05:24;101759.75;;;20.48;76.86
72444;BME280;60449;52.016;5.414;2022-08-01T08:06:26;101755.81;;;20.66;76.18
72444;BME280;60449;52.016;5.414;2022-08-01T08:07:15;101755.91;;;20.63;76.87
72444;BME280;60449;52.016;5.414;2022-08-01T08:08:07;101764.97;;;20.54;77.68
72444;BME280;60449;52.016;5.414;2022-08-01T08:09:00;101768.16;;;20.28;79.15
72444;BME280;60449;52.016;5.414;2022-08-01T08:09:50;101769.09;;;20.27;79.67
72444;BME280;60449;52.016;5.414;2022-08-01T08:10:42;101766.09;;;20.42;78.95
72444;BME280;60449;52.016;5.414;2022-08-01T08:11:32;101770.47;;;20.48;78.99
72444;BME280;60449;52.016;5.414;2022-08-01T08:12:22;101769.78;;;20.38;78.97
72444;BME280;60449;52.016;5.414;2022-08-01T08:13:13;101759.66;;;20.52;79.02
72444;BME280;60449;52.016;5.414;2022-08-01T08:14:04;101768.78;;;20.44;78.60
72444;BME280;60449;52.016;5.414;2022-08-01T08:14:54;101757.47;;;20.28;79.70
72444;BME280;60449;52.016;5.414;2022-08-01T08:15:44;101767.94;;;20.40;80.15
72444;BME280;60449;52.016;5.414;2022-08-01T08:16:34;101771.81;;;20.23;79.71
72444;BME280;60449;52.016;5.414;2022-08-01T08:17:24;101773.13;;;20.01;80.46
72444;BME280;60449;52.016;5.414;2022-08-01T08:18:14;101778.41;;;19.49;82.79
72444;BME280;60449;52.016;5.414;2022-08-01T08:19:05;101771.34;;;19.45;82.77
72444;BME280;60449;52.016;5.414;2022-08-01T08:19:54;101773.47;;;19.77;82.50
72444;BME280;60449;52.016;5.414;2022-08-01T08:20:45;101776.81;;;19.95;81.60
72444;BME280;60449;52.016;5.414;2022-08-01T08:21:35;101776.69;;;20.00;81.26
72444;BME280;60449;52.016;5.414;2022-08-01T08:22:26;101784.72;;;20.01;80.88
72444;BME280;60449;52.016;5.414;2022-08-01T08:23:16;101775.75;;;20.04;81.00
72444;BME280;60449;52.016;5.414;2022-08-01T08:24:24;101783.03;;;19.95;79.87
72444;BME280;60449;52.016;5.414;2022-08-01T08:25:15;101782.28;;;19.86;81.23
72444;BME280;60449;52.016;5.414;2022-08-01T08:26:06;101783.13;;;19.30;82.24
72444;BME280;60449;52.016;5.414;2022-08-01T08:26:59;101775.03;;;19.36;82.80
72444;BME280;60449;52.016;5.414;2022-08-01T08:27:50;101780.63;;;19.20;83.43
72444;BME280;60449;52.016;5.414;2022-08-01T08:28:40;101782.44;;;19.17;84.71
72444;BME280;60449;52.016;5.414;2022-08-01T08:29:31;101777.00;;;19.23;84.94
72444;BME280;60449;52.016;5.414;2022-08-01T08:30:22;101775.91;;;19.38;81.65
72444;BME280;60449;52.016;5.414;2022-08-01T08:31:11;101774.81;;;19.50;81.69
72444;BME280;60449;52.016;5.414;2022-08-01T08:32:04;101781.31;;;19.35;81.68
72444;BME280;60449;52.016;5.414;2022-08-01T08:32:55;101773.38;;;18.57;83.81
72444;BME280;60449;52.016;5.414;2022-08-01T08:33:45;101775.72;;;18.85;83.86
72444;BME280;60449;52.016;5.414;2022-08-01T08:34:35;101774.94;;;18.75;84.21
72444;BME280;60449;52.016;5.414;2022-08-01T08:35:25;101768.81;;;18.65;84.53
72444;BME280;60449;52.016;5.414;2022-08-01T08:36:16;101784.63;;;18.83;84.56
72444;BME280;60449;52.016;5.414;2022-08-01T08:37:05;101779.13;;;18.99;84.51
72444;BME280;60449;52.016;5.414;2022-08-01T08:37:56;101769.81;;;19.27;83.78
72444;BME280;60449;52.016;5.414;2022-08-01T08:38:46;101781.69;;;19.05;83.52
72444;BME280;60449;52.016;5.414;2022-08-01T08:39:38;101782.66;;;18.98;83.61
72444;BME280;60449;52.016;5.414;2022-08-01T08:40:30;101779.75;;;19.17;82.33
72444;BME280;60449;52.016;5.414;2022-08-01T08:41:26;101782.34;;;19.23;83.37
72444;BME280;60449;52.016;5.414;2022-08-01T08:42:15;101783.34;;;19.14;83.97
72444;BME280;60449;52.016;5.414;2022-08-01T08:43:06;101774.94;;;18.75;85.01
72444;BME280;60449;52.016;5.414;2022-08-01T08:43:55;101789.38;;;18.57;86.28
72444;BME280;60449;52.016;5.414;2022-08-01T08:44:47;101791.59;;;18.97;85.62
72444;BME280;60449;52.016;5.414;2022-08-01T08:45:39;101786.06;;;19.13;84.82
72444;BME280;60449;52.016;5.414;2022-08-01T08:46:31;101789.72;;;19.07;84.64
72444;BME280;60449;52.016;5.414;2022-08-01T08:47:24;101786.13;;;19.06;85.47
72444;BME280;60449;52.016;5.414;2022-08-01T08:48:16;101786.34;;;18.88;86.15
72444;BME280;60449;52.016;5.414;2022-08-01T08:49:09;101789.56;;;19.18;85.24
72444;BME280;60449;52.016;5.414;2022-08-01T08:50:00;101788.44;;;19.33;84.75
72444;BME280;60449;52.016;5.414;2022-08-01T08:50:53;101788.81;;;19.08;84.65
72444;BME280;60449;52.016;5.414;2022-08-01T08:51:48;101782.34;;;19.23;84.54
72444;BME280;60449;52.016;5.414;2022-08-01T08:52:41;101792.53;;;18.91;84.51
72444;BME280;60449;52.016;5.414;2022-08-01T08:53:36;101787.91;;;19.07;85.64
72444;BME280;60449;52.016;5.414;2022-08-01T08:54:35;101786.50;;;18.75;85.65
72444;BME280;60449;52.016;5.414;2022-08-01T08:55:29;101789.25;;;18.67;86.56
72444;BME280;60449;52.016;5.414;2022-08-01T08:56:21;101792.34;;;19.10;86.22
72444;BME280;60449;52.016;5.414;2022-08-01T08:57:15;101795.00;;;19.11;85.90
72444;BME280;60449;52.016;5.414;2022-08-01T08:58:12;101784.03;;;19.30;85.13
72444;BME280;60449;52.016;5.414;2022-08-01T08:59:04;101786.50;;;19.44;84.28
72444;BME280;60449;52.016;5.414;2022-08-01T08:59:55;101790.84;;;19.51;84.54
72444;BME280;60449;52.016;5.414;2022-08-01T09:00:46;101800.25;;;19.77;83.77
72444;BME280;60449;52.016;5.414;2022-08-01T09:01:37;101800.69;;;20.06;83.25
72444;BME280;60449;52.016;5.414;2022-08-01T09:02:28;101799.53;;;20.21;82.65
72444;BME280;60449;52.016;5.414;2022-08-01T09:03:18;101788.97;;;19.58;84.29
72444;BME280;60449;52.016;5.414;2022-08-01T09:04:11;101794.06;;;19.74;84.76
72444;BME280;60449;52.016;5.414;2022-08-01T09:05:03;101797.66;;;19.71;84.13
72444;BME280;60449;52.016;5.414;2022-08-01T09:05:54;101798.59;;;19.68;84.48
72444;BME280;60449;52.016;5.414;2022-08-01T09:06:45;101793.81;;;19.89;84.00
72444;BME280;60449;52.016;5.414;2022-08-01T09:07:34;101794.22;;;19.64;83.57
72444;BME280;60449;52.016;5.414;2022-08-01T09:08:25;101797.78;;;19.63;83.72
72444;BME280;60449;52.016;5.414;2022-08-01T09:09:15;101802.53;;;20.04;83.13
72444;BME280;60449;52.016;5.414;2022-08-01T09:10:07;101800.59;;;20.12;83.26
72444;BME280;60449;52.016;5.414;2022-08-01T09:10:58;101797.22;;;19.43;83.96
72444;BME280;60449;52.016;5.414;2022-08-01T09:11:49;101795.41;;;19.43;85.36
72444;BME280;60449;52.016;5.414;2022-08-01T09:13:06;101804.81;;;19.71;84.50
72444;BME280;60449;52.016;5.414;2022-08-01T09:14:08;101801.97;;;19.81;84.89
72444;BME280;60449;52.016;5.414;2022-08-01T09:14:59;101797.63;;;19.74;85.07
72444;BME280;60449;52.016;5.414;2022-08-01T09:15:51;101795.53;;;19.95;82.34
72444;BME280;60449;52.016;5.414;2022-08-01T09:16:59;101801.06;;;20.34;81.05